Lake Levels Lake Levels   »   United States   »   Texas
LAKES RIVERS MARINAS NEWS HOUSES EVENTS MAPS
1,681 Lakes:
Lake Store

Lake Levels in Texas, United States

Lake Name Current
Level
Full Pool +/-
Full Pool
Reading
Date - Time
Alan Henry (TX) 2,216.01 2,224.00 -7.99 5/18/2022  9:30 AM
Amistad (TX) 1,060.51 1,117.00 -56.49 5/18/2022  10:15 AM
Amon Carter (TX) 920.46 920.00 0.46 5/18/2022  4:00 AM
Aquilla (TX) 535.29 537.50 -2.21 5/18/2022  9:30 AM
Arlington (TX) 548.09 550.00 -1.91 5/18/2022  12:00 AM
Arrowhead (TX) 922.99 926.00 -3.01 5/18/2022  10:00 AM
Austin (TX) 492.14 492.80 -0.66 5/18/2022  10:00 AM
Bardwell (TX) 420.94 421.00 -0.06 5/18/2022  9:30 AM
Belton (TX) 589.85 594.00 -4.15 5/18/2022  9:00 AM
Benbrook (TX) 690.31 694.00 -3.69 5/18/2022  10:00 AM
Bob Sandlin (TX) 337.23 337.50 -0.27 5/17/2022  9:50 AM
Bonham (TX) 565.13 565.00 0.13 5/18/2022  9:00 AM
Brady Creek (TX) 1,734.22 1,743.00 -8.78 5/18/2022  9:45 AM
Bridgeport (TX) 832.48 836.00 -3.52 5/18/2022  10:00 AM
Brownwood (TX) 1,421.14 1,425.00 -3.86 5/18/2022  5:30 AM
Buchanan (TX) 1,014.23 1,020.50 -6.27 5/18/2022  10:05 AM
Caddo (LA TX) 169.67 168.50 1.17 5/18/2022  6:30 AM
Canyon (TX) 907.12 909.00 -1.88 5/18/2022  6:15 AM
Cedar Creek (TX) 320.69 322.00 -1.31 5/18/2022  8:45 AM
Champion Creek (TX) 2,072.16 2,083.00 -10.84 5/18/2022  9:37 AM
Cherokee (TX) 280.20 280.00 0.20 5/18/2022  9:45 AM
Choke Canyon (TX) 200.17 220.50 -20.33 5/18/2022  7:30 AM
Cisco (TX) 1,517.81 1,520.00 -2.19 5/18/2022  9:30 AM
Coleman (TX) 1,714.69 1,718.00 -3.31 5/18/2022  5:30 AM
Coleto Creek (TX) 96.10 98.28 -2.18 5/18/2022  9:00 AM
Colorado City (TX) 2,062.51 2,070.20 -7.69 5/18/2022  9:37 AM
Conroe (TX) 200.96 201.00 -0.04 5/18/2022  10:30 AM
Corpus Christi (TX) 88.53 94.00 -5.47 5/17/2022  9:21 AM
Cypress Springs (TX) 179.82 378.00 -198.18 4/19/2022  9:51 AM
E. V. Spence (TX) 1,857.91 1,898.00 -40.09 5/18/2022  8:00 AM
Eagle Mountain (TX) 646.38 649.00 -2.62 5/18/2022  10:00 AM
Falcon (TX) 258.61 301.20 -42.59 5/18/2022  10:30 AM
Fork (TX) 397.55 403.00 -5.45 5/18/2022  10:30 AM
Georgetown (TX) 782.70 791.00 -8.30 5/18/2022  8:00 AM
Graham (TX) 1,073.45 1,075.00 -1.55 5/18/2022  10:00 AM
Granbury (TX) 692.42 693.00 -0.58 5/18/2022  10:20 AM
Granger (TX) 504.39 504.00 0.39 5/18/2022  8:00 AM
Grapevine (TX) 536.10 535.00 1.10 5/18/2022  9:45 AM
Hords Creek (TX) 1,885.89 1,900.00 -14.11 5/18/2022  2:30 AM
Houston (TX) 42.41 42.40 0.01 5/18/2022  9:30 AM
Hubbard Creek (TX) 1,179.58 1,183.00 -3.42 5/18/2022  10:15 AM
Hubert M Moss (TX) 714.88 715.00 -0.12 5/18/2022  9:15 AM
Inks (TX) 887.77 886.90 0.87 5/18/2022  10:00 AM
Jacksonville (TX) 422.06 422.00 0.06 5/18/2022  12:00 AM
JB Thomas (TX) 2,233.98 2,258.00 -24.02 5/18/2022  9:45 AM
Jim Chapman (TX) 438.23 440.00 -1.77 5/17/2022  9:50 AM
Joe Pool (TX) 519.96 522.00 -2.04 5/18/2022  8:00 AM
Kemp (TX) 1,140.40 1,144.00 -3.60 5/18/2022  10:15 AM
Kickapoo (TX) 1,040.33 1,045.00 -4.67 5/18/2022  9:00 AM
Lake O' the Pines (TX) 229.88 228.50 1.38 5/17/2022  9:50 AM
Lavon (TX) 492.40 492.00 0.40 5/18/2022  9:00 AM
Leon (TX) 1,371.22 5/18/2022  7:30 AM
Lewisville (TX) 522.77 522.00 0.77 5/18/2022  10:15 AM
Limestone (TX) 362.69 363.00 -0.31 5/18/2022  10:30 AM
Livingston (TX) 131.12 131.00 0.12 5/18/2022  12:00 AM
Lyndon B. Johnson (TX) 824.58 825.00 -0.42 5/18/2022  10:05 AM
MacKenzie (TX) 3,008.94 3,100.00 -91.06 5/18/2022  7:30 AM
Marble Falls (TX) 736.30 737.00 -0.70 5/18/2022  10:05 AM
Martin Creek (TX) 306.01 306.00 0.01 5/18/2022  10:30 AM
Medina (TX) 1,006.80 1,062.00 -55.20 5/18/2022  10:00 AM
Meredith (TX) 2,883.51 2,941.00 -57.49 5/18/2022  10:30 AM
Mexia (TX) 448.13 448.30 -0.17 5/18/2022  8:00 AM
Millers Creek (TX) 1,330.91 1,334.00 -3.09 5/18/2022  10:00 AM
Mineral Wells (TX) 863.00 863.00 -0.00 5/18/2022  2:30 PM
Moss Creek (TX) 2,332.10 2,337.00 -4.90 5/18/2022  6:45 AM
Mountain Creek (TX) 457.55 457.00 0.55 5/18/2022  9:45 AM
Murvaul (TX) 265.38 265.50 -0.12 5/17/2022  9:50 AM
Nacogdoches (TX) 278.55 279.00 -0.45 5/17/2022  9:50 AM
Natural Dam Salt (TX) 2,447.29 2,457.00 -9.71 5/18/2022  12:00 AM
Navarro Mills (TX) 423.85 424.50 -0.65 5/18/2022  10:00 AM
Nocona (TX) 824.66 827.00 -2.34 5/18/2022  9:00 AM
O. C. Fisher (TX) 1,864.10 1,908.00 -43.90 5/18/2022  10:00 AM
O.H. Ivie (TX) 1,533.26 1,551.50 -18.24 5/18/2022  9:45 AM
Oak Creek (TX) 1,992.84 2,000.00 -7.16 5/18/2022  12:00 AM
Palestine (TX) 345.17 345.00 0.17 5/18/2022  10:00 AM
Palo Pinto (TX) 865.58 867.00 -1.42 5/18/2022  10:15 AM
Pat Cleburne (TX) 728.55 733.60 -5.05 5/18/2022  10:00 AM
Pat Mayse (TX) 452.03 451.00 1.03 5/17/2022  9:50 AM
Phantom Hill (TX) 1,632.68 1,635.90 -3.22 5/18/2022  9:30 AM
Possum Kingdom (TX) 997.13 1,000.00 -2.87 5/18/2022  10:15 AM
Proctor (TX) 1,159.03 1,162.00 -2.97 5/18/2022  10:30 AM
Ray Hubbard (TX) 435.58 435.50 0.08 5/18/2022  10:30 AM
Ray Roberts (TX) 633.05 632.50 0.55 5/18/2022  5:15 AM
Red Bluff (TX) 2,820.77 2,827.13 -6.36 5/18/2022  9:15 AM
Richland Chambers (TX) 312.84 315.00 -2.16 5/18/2022  9:45 AM
Sam Rayburn (TX) 163.38 164.40 -1.02 5/18/2022  12:30 AM
Somerville (TX) 238.21 238.00 0.21 5/18/2022  10:00 AM
Squaw Creek (TX) 774.66 775.00 -0.34 5/18/2022  10:00 AM
Stamford (TX) 1,414.32 1,417.00 -2.68 5/18/2022  10:30 AM
Steinhagen Reservoir (TX) 82.45 82.40 0.05 5/18/2022  10:00 AM
Stillhouse Hollow (TX) 617.80 622.00 -4.20 5/18/2022  9:00 AM
Striker (TX) 292.83 292.93 -0.10 5/18/2022  12:45 AM
Tawakoni (TX) 436.40 437.50 -1.10 5/18/2022  10:15 AM
Texana (TX) 42.05 44.00 -1.95 5/18/2022  10:00 AM
Texoma (TX) 616.63 617.00 -0.37 5/18/2022  10:00 AM
Toledo Bend (TX LA) 171.34 172.00 -0.66 5/18/2022  8:30 AM
Travis (TX) 653.61 681.00 -27.39 5/18/2022  10:00 AM
Twin Buttes (TX) 1,925.94 1,940.00 -14.06 5/18/2022  12:00 AM
Waco (TX) 456.98 462.00 -5.02 5/18/2022  7:15 AM
Waxahachie (TX) 529.00 5/18/2022  12:00 AM
Weatherford (TX) 891.66 896.00 -4.34 5/18/2022  9:45 AM
White River (TX) 2,348.34 5/18/2022  10:15 AM
Whitney (TX) 530.46 533.00 -2.54 5/18/2022  10:15 AM
Worth (TX) 592.08 594.00 -1.92 5/18/2022  9:00 AM
Wright Patman (TX) 227.10 220.60 6.50 5/17/2022  9:50 AM


CURRENT DAILY STREAMFLOW CONDITIONS
High
90th percentile
75th - 89th percentile
25th - 74th percentile
10th - 24th percentile
10th percentile
Low
Not ranked

The colored dots on this map depict streamflow conditions as a percentile, which is computed from the period of record for the current day of the year. Only stations with at least 30 years of record are used. The gray circles indicate other stations that were not ranked in percentiles either because they have fewer than 30 years of record or because they report parameters other than streamflow. Some stations, for example, measure stage only.
U.S. Daily Streamflow Conditions



U.S. Drought Monitor